Time;durP1;ratioP1;P1;durP2;ratioP2;P2;SDS_P1;SDS_P2;PMS_P1;PMS_P2;Temp;Humidity;BMP_temperature;BMP_pressure;BME280_temperature;BME280_humidity;BME280_pressure;Samples;Min_cycle;Max_cycle;Signal;HPM_P1;HPM_P2
2024/03/24 00:02:16;;;;;;;8.60;5.32;;;5.30;99.90;;;;;;5062847;28;20079;-79
2024/03/24 00:04:42;;;;;;;13.02;5.28;;;5.40;99.90;;;;;;5081212;28;20048;-79
2024/03/24 00:07:08;;;;;;;12.45;5.63;;;5.40;99.90;;;;;;5049966;28;20082;-79
2024/03/24 00:09:34;;;;;;;9.10;5.32;;;5.40;99.90;;;;;;5049547;28;20041;-79
2024/03/24 00:11:59;;;;;;;11.77;6.00;;;5.40;99.90;;;;;;5063338;28;20447;-79
2024/03/24 00:14:25;;;;;;;14.88;6.22;;;5.40;99.90;;;;;;5049666;28;20053;-79
2024/03/24 00:16:51;;;;;;;10.73;6.13;;;5.40;99.90;;;;;;5046544;28;20041;-79
2024/03/24 00:19:17;;;;;;;13.38;6.50;;;5.40;99.90;;;;;;5049710;28;20056;-79
2024/03/24 00:21:42;;;;;;;11.23;6.95;;;5.50;99.90;;;;;;5048678;28;20119;-78
2024/03/24 00:24:08;;;;;;;14.05;7.22;;;5.40;99.90;;;;;;5061232;28;20455;-78
2024/03/24 00:26:34;;;;;;;12.75;8.23;;;5.50;99.90;;;;;;5062656;28;20055;-78
2024/03/24 00:29:00;;;;;;;15.40;9.20;;;5.30;99.90;;;;;;5061237;28;20048;-77
2024/03/24 00:31:26;;;;;;;17.88;10.05;;;5.40;99.90;;;;;;5067366;28;20041;-77
2024/03/24 00:33:52;;;;;;;18.63;11.43;;;5.40;99.90;;;;;;5061488;28;20041;-77
2024/03/24 00:36:17;;;;;;;17.35;10.52;;;5.40;99.90;;;;;;5062521;28;20084;-77
2024/03/24 00:38:43;;;;;;;16.77;11.13;;;5.40;99.90;;;;;;5061770;28;20039;-77
2024/03/24 00:41:09;;;;;;;18.48;12.05;;;5.40;99.90;;;;;;5066167;28;20133;-77
2024/03/24 00:43:35;;;;;;;17.63;12.35;;;5.40;99.90;;;;;;5048643;28;20173;-77
2024/03/24 00:46:03;;;;;;;17.63;13.07;;;5.30;99.90;;;;;;5060986;28;20133;-77
2024/03/24 00:48:29;;;;;;;22.85;14.02;;;5.30;99.90;;;;;;5061430;28;20036;-77
2024/03/24 00:50:55;;;;;;;22.25;14.77;;;5.30;99.90;;;;;;5066246;28;20427;-77
2024/03/24 00:53:22;;;;;;;17.42;12.80;;;5.30;99.90;;;;;;5046312;28;20130;-78
2024/03/24 00:55:48;;;;;;;19.35;14.43;;;5.30;99.90;;;;;;5061611;28;20068;-78
2024/03/24 00:58:14;;;;;;;23.67;14.55;;;5.30;99.90;;;;;;5062146;28;20084;-78
2024/03/24 01:00:40;;;;;;;20.85;14.70;;;5.30;99.90;;;;;;5048672;28;20109;-78
2024/03/24 01:03:06;;;;;;;21.17;14.95;;;5.30;99.90;;;;;;5066663;28;20048;-79
2024/03/24 01:05:32;;;;;;;21.27;15.25;;;5.30;99.90;;;;;;5046178;28;20051;-78
2024/03/24 01:07:57;;;;;;;19.38;14.88;;;5.40;99.90;;;;;;5063244;28;20174;-78
2024/03/24 01:10:23;;;;;;;19.20;15.05;;;5.40;99.90;;;;;;5045171;28;20182;-77
2024/03/24 01:12:52;;;;;;;23.30;15.77;;;5.40;99.90;;;;;;5049256;28;20032;-77
2024/03/24 01:15:18;;;;;;;21.50;14.10;;;5.40;99.90;;;;;;5048708;28;20174;-76
2024/03/24 01:17:48;;;;;;;22.55;16.02;;;5.40;99.90;;;;;;5064274;28;20127;-77
2024/03/24 01:20:14;;;;;;;23.73;15.38;;;5.40;99.90;;;;;;5051308;28;20503;-77
2024/03/24 01:22:41;;;;;;;18.23;13.85;;;5.40;99.90;;;;;;5064955;28;20076;-79
2024/03/24 01:25:10;;;;;;;21.45;14.60;;;5.50;99.90;;;;;;5046462;28;20048;-77
2024/03/24 01:27:36;;;;;;;20.50;14.32;;;5.40;99.90;;;;;;5060401;28;20051;-76
2024/03/24 01:30:02;;;;;;;17.50;12.75;;;5.50;99.90;;;;;;5048200;28;20040;-77
2024/03/24 01:32:28;;;;;;;17.60;12.65;;;5.50;99.90;;;;;;5048635;28;20105;-77
2024/03/24 01:34:53;;;;;;;14.23;10.35;;;5.50;99.90;;;;;;5062060;28;20036;-77
2024/03/24 01:37:19;;;;;;;12.20;9.60;;;5.50;99.90;;;;;;5061014;28;20048;-78
2024/03/24 01:39:46;;;;;;;15.63;10.55;;;5.60;99.90;;;;;;5058146;28;20040;-76
2024/03/24 01:42:15;;;;;;;10.77;8.88;;;5.40;99.90;;;;;;5061947;28;20055;-77
2024/03/24 01:44:42;;;;;;;12.95;8.98;;;5.50;99.90;;;;;;5047171;28;20041;-76
2024/03/24 01:47:11;;;;;;;10.60;7.68;;;5.50;99.90;;;;;;5060466;28;20090;-77
2024/03/24 01:49:38;;;;;;;11.73;7.60;;;5.40;99.90;;;;;;5062389;28;20040;-77
2024/03/24 01:52:07;;;;;;;13.88;8.13;;;5.40;99.90;;;;;;5046989;28;20045;-76
2024/03/24 01:54:36;;;;;;;12.10;7.53;;;5.40;99.90;;;;;;5059821;28;20040;-76
2024/03/24 01:57:03;;;;;;;8.68;6.25;;;5.40;99.90;;;;;;5064571;28;20287;-76
2024/03/24 01:59:29;;;;;;;10.32;6.13;;;5.40;99.90;;;;;;5062373;28;20532;-77
2024/03/24 02:01:55;;;;;;;11.98;6.65;;;5.40;99.90;;;;;;5060839;28;20123;-77
2024/03/24 02:04:21;;;;;;;9.88;6.97;;;5.30;99.90;;;;;;5054267;28;20041;-77
2024/03/24 02:06:46;;;;;;;8.98;6.40;;;5.30;99.90;;;;;;5034148;28;20036;-77
2024/03/24 02:09:12;;;;;;;10.20;6.57;;;5.30;99.90;;;;;;5049360;28;20067;-77
2024/03/24 02:11:38;;;;;;;11.50;7.15;;;5.40;99.90;;;;;;5054547;28;20044;-77
2024/03/24 02:14:04;;;;;;;12.05;7.00;;;5.30;99.90;;;;;;5054024;28;20056;-77
2024/03/24 02:16:29;;;;;;;9.07;5.90;;;5.30;99.90;;;;;;5057491;28;20051;-77
2024/03/24 02:18:58;;;;;;;10.82;5.95;;;5.30;99.90;;;;;;5047386;28;20404;-78
2024/03/24 02:21:24;;;;;;;9.25;6.22;;;5.20;99.90;;;;;;5057054;28;20044;-77
2024/03/24 02:23:50;;;;;;;8.48;5.60;;;5.20;99.90;;;;;;5044188;28;20032;-78
2024/03/24 02:26:16;;;;;;;8.63;5.30;;;5.30;99.90;;;;;;5079671;28;20048;-77
2024/03/24 02:28:42;;;;;;;9.52;6.00;;;5.20;99.90;;;;;;5057205;28;20520;-77
2024/03/24 02:31:08;;;;;;;7.22;5.45;;;5.10;99.90;;;;;;5051485;28;20040;-78
2024/03/24 02:33:34;;;;;;;8.50;5.47;;;5.10;99.90;;;;;;5059329;28;20551;-77
2024/03/24 02:36:00;;;;;;;9.43;6.03;;;5.20;99.90;;;;;;5064996;28;20162;-78
2024/03/24 02:38:26;;;;;;;9.48;5.88;;;5.10;99.90;;;;;;5060409;28;20051;-77
2024/03/24 02:40:51;;;;;;;9.05;6.00;;;5.10;99.90;;;;;;5044734;28;20113;-77
2024/03/24 02:43:17;;;;;;;9.35;5.72;;;5.10;99.90;;;;;;5058217;28;20052;-78
2024/03/24 02:45:43;;;;;;;8.98;5.60;;;5.20;99.90;;;;;;5059451;28;20760;-78
2024/03/24 02:48:09;;;;;;;8.35;5.63;;;5.10;99.90;;;;;;5045267;28;20794;-77
2024/03/24 02:50:35;;;;;;;9.55;4.97;;;5.10;99.90;;;;;;5052608;28;20052;-77
2024/03/24 02:53:02;;;;;;;9.50;5.28;;;5.20;99.90;;;;;;5046310;28;20041;-78
2024/03/24 02:55:28;;;;;;;8.63;5.18;;;5.10;99.90;;;;;;5050044;28;20141;-77
2024/03/24 02:57:54;;;;;;;7.75;4.38;;;5.10;99.90;;;;;;5058898;28;20508;-78
2024/03/24 03:00:21;;;;;;;8.85;4.53;;;5.10;99.90;;;;;;5043377;28;20358;-78
2024/03/24 03:02:47;;;;;;;7.55;4.10;;;5.20;99.90;;;;;;5062367;28;20170;-77
2024/03/24 03:05:12;;;;;;;9.52;4.43;;;5.10;99.90;;;;;;5055774;28;20677;-77
2024/03/24 03:07:38;;;;;;;8.45;4.78;;;5.20;99.90;;;;;;5045318;28;20071;-78
2024/03/24 03:10:08;;;;;;;6.78;4.40;;;5.20;99.90;;;;;;5063612;28;20052;-77
2024/03/24 03:12:36;;;;;;;8.45;4.93;;;5.20;99.90;;;;;;5046682;28;20040;-78
2024/03/24 03:15:06;;;;;;;8.45;5.00;;;5.20;99.90;;;;;;5058212;28;20484;-78
2024/03/24 03:17:32;;;;;;;8.73;4.97;;;5.20;99.90;;;;;;5060245;28;20037;-77
2024/03/24 03:20:00;;;;;;;8.70;4.35;;;5.20;99.90;;;;;;5061022;28;20555;-77
2024/03/24 03:22:26;;;;;;;9.45;4.38;;;5.20;99.90;;;;;;5045825;28;20044;-77
2024/03/24 03:24:52;;;;;;;9.90;4.70;;;5.20;99.90;;;;;;5057965;28;20488;-77
2024/03/24 03:27:18;;;;;;;10.00;5.80;;;5.20;99.90;;;;;;5060356;28;20072;-78
2024/03/24 03:29:44;;;;;;;7.95;4.45;;;5.20;99.90;;;;;;5051120;28;20048;-78
2024/03/24 03:32:09;;;;;;;6.75;4.10;;;5.30;99.90;;;;;;5081561;28;20053;-77
2024/03/24 03:34:35;;;;;;;6.85;4.13;;;5.20;99.90;;;;;;5062784;28;20535;-77
2024/03/24 03:37:01;;;;;;;7.20;4.32;;;5.20;99.90;;;;;;5065474;28;20064;-78
2024/03/24 03:39:27;;;;;;;6.53;3.67;;;5.30;99.90;;;;;;5069438;28;20120;-78
2024/03/24 03:41:52;;;;;;;7.45;4.00;;;5.20;99.90;;;;;;5047396;28;20045;-79
2024/03/24 03:44:19;;;;;;;5.88;3.45;;;5.30;99.90;;;;;;5067089;28;20044;-78
2024/03/24 03:46:44;;;;;;;8.05;4.20;;;5.20;99.90;;;;;;5051529;28;20095;-77
2024/03/24 03:49:15;;;;;;;8.75;4.15;;;5.30;99.90;;;;;;5067696;28;20405;-78
2024/03/24 03:51:44;;;;;;;7.25;4.03;;;5.40;99.90;;;;;;5050776;28;20123;-78
2024/03/24 03:54:11;;;;;;;8.20;4.22;;;5.20;99.90;;;;;;5049358;28;20064;-78
2024/03/24 03:56:38;;;;;;;5.72;4.00;;;5.20;99.90;;;;;;5066037;28;20532;-77
2024/03/24 03:59:05;;;;;;;7.65;4.00;;;5.30;99.90;;;;;;5065931;28;20115;-76
2024/03/24 04:01:31;;;;;;;7.63;4.28;;;5.30;99.90;;;;;;5062884;28;20040;-76
2024/03/24 04:03:56;;;;;;;9.85;4.43;;;5.30;99.90;;;;;;5062728;28;20040;-77
2024/03/24 04:06:22;;;;;;;7.57;4.28;;;5.30;99.90;;;;;;5050402;28;20040;-77
2024/03/24 04:08:48;;;;;;;8.55;5.38;;;5.30;99.90;;;;;;5064091;28;20104;-77
2024/03/24 04:11:14;;;;;;;10.65;4.78;;;5.30;99.90;;;;;;5062424;28;20443;-77
2024/03/24 04:13:40;;;;;;;11.57;5.15;;;5.30;99.90;;;;;;5063306;28;20178;-77
2024/03/24 04:16:06;;;;;;;8.05;5.18;;;5.20;99.90;;;;;;5063878;28;20131;-78
2024/03/24 04:18:32;;;;;;;12.73;5.60;;;5.30;99.90;;;;;;5063980;28;20136;-77
2024/03/24 04:21:02;;;;;;;10.55;5.40;;;5.30;99.90;;;;;;5058397;28;20385;-77
2024/03/24 04:23:29;;;;;;;11.13;5.30;;;5.30;99.90;;;;;;5046254;28;20060;-77
2024/03/24 04:25:55;;;;;;;12.88;5.88;;;5.40;99.90;;;;;;5046639;28;20032;-78
2024/03/24 04:28:20;;;;;;;11.38;6.32;;;5.40;99.90;;;;;;5067603;28;20507;-77
2024/03/24 04:30:46;;;;;;;11.68;5.53;;;5.30;99.90;;;;;;5060684;28;20143;-78
2024/03/24 04:33:12;;;;;;;11.13;5.68;;;5.40;99.90;;;;;;5080797;28;20059;-78
2024/03/24 04:35:38;;;;;;;12.43;5.93;;;5.40;99.90;;;;;;5061874;28;20040;-78
2024/03/24 04:38:04;;;;;;;11.95;5.75;;;5.40;99.90;;;;;;5063147;28;20048;-79
2024/03/24 04:40:30;;;;;;;10.98;5.57;;;5.40;99.90;;;;;;5064347;28;20052;-78
2024/03/24 04:42:56;;;;;;;9.77;5.65;;;5.40;99.90;;;;;;5077112;28;20029;-78
2024/03/24 04:45:26;;;;;;;14.98;6.10;;;5.40;99.90;;;;;;5064137;28;20052;-78
2024/03/24 04:47:51;;;;;;;11.57;5.75;;;5.50;99.90;;;;;;5046823;28;20504;-78
2024/03/24 04:50:18;;;;;;;9.23;5.40;;;5.50;99.90;;;;;;5062257;28;20055;-78
2024/03/24 04:52:44;;;;;;;13.80;5.35;;;5.40;99.90;;;;;;5064913;28;20134;-78
2024/03/24 04:55:10;;;;;;;10.77;5.57;;;5.40;99.90;;;;;;5065580;28;20120;-78
2024/03/24 04:57:37;;;;;;;11.05;5.40;;;5.40;99.90;;;;;;5060606;28;20412;-76
2024/03/24 05:00:07;;;;;;;11.68;5.50;;;5.40;99.90;;;;;;5063004;28;20036;-77
2024/03/24 05:02:34;;;;;;;13.25;4.97;;;5.40;99.90;;;;;;5065779;28;20052;-77
2024/03/24 05:05:00;;;;;;;9.50;4.78;;;5.30;99.90;;;;;;5050519;28;20041;-77
2024/03/24 05:07:26;;;;;;;13.93;5.03;;;5.30;99.90;;;;;;5048717;28;20493;-77
2024/03/24 05:09:52;;;;;;;8.88;4.30;;;5.30;99.90;;;;;;5047428;28;20037;-79
2024/03/24 05:12:17;;;;;;;12.77;4.30;;;5.30;99.90;;;;;;5074087;28;20521;-78
2024/03/24 05:14:43;;;;;;;13.32;4.70;;;5.30;99.90;;;;;;5053027;28;20044;-77
2024/03/24 05:17:10;;;;;;;10.00;4.20;;;5.20;99.90;;;;;;5065915;28;20062;-77
2024/03/24 05:19:36;;;;;;;8.80;4.13;;;5.20;99.90;;;;;;5050053;28;20115;-77
2024/03/24 05:22:02;;;;;;;10.65;4.63;;;5.10;99.90;;;;;;5056168;28;20048;-77
2024/03/24 05:24:29;;;;;;;9.93;3.60;;;5.10;99.90;;;;;;5060423;28;20049;-77
2024/03/24 05:26:55;;;;;;;15.13;4.63;;;5.00;99.90;;;;;;5048592;28;20049;-78
2024/03/24 05:29:23;;;;;;;9.10;3.97;;;5.10;99.90;;;;;;5090758;28;20055;-77
2024/03/24 05:31:56;;;;;;;12.68;4.43;;;5.00;99.90;;;;;;5072514;28;20659;-78
2024/03/24 05:34:22;;;;;;;13.82;4.18;;;5.10;99.90;;;;;;5060026;28;20149;-78
2024/03/24 05:36:48;;;;;;;10.05;3.85;;;5.10;99.90;;;;;;5052228;28;20799;-78
2024/03/24 05:39:14;;;;;;;13.10;4.40;;;5.20;99.90;;;;;;5042086;28;20048;-76
2024/03/24 05:41:40;;;;;;;7.85;3.28;;;5.10;99.90;;;;;;5060595;28;20051;-78
2024/03/24 05:44:05;;;;;;;11.02;3.65;;;5.20;99.90;;;;;;5062358;28;20412;-77
2024/03/24 05:46:31;;;;;;;10.23;3.50;;;5.10;99.90;;;;;;5068265;28;20045;-77
2024/03/24 05:48:57;;;;;;;10.98;3.10;;;5.10;99.90;;;;;;5031418;28;20492;-78
2024/03/24 05:51:23;;;;;;;9.35;3.55;;;5.10;99.90;;;;;;5061832;28;20119;-77
2024/03/24 05:53:48;;;;;;;11.05;3.03;;;5.10;99.90;;;;;;5058388;28;20039;-77
2024/03/24 05:56:14;;;;;;;8.20;2.47;;;5.10;99.90;;;;;;5056283;28;20475;-77
2024/03/24 05:58:41;;;;;;;9.52;3.20;;;5.10;99.90;;;;;;5064573;28;20036;-77
2024/03/24 06:01:06;;;;;;;9.80;2.70;;;5.20;99.90;;;;;;5060079;28;20504;-78
2024/03/24 06:03:32;;;;;;;11.07;2.88;;;5.20;99.90;;;;;;5046078;28;20078;-77
2024/03/24 06:05:58;;;;;;;12.35;3.70;;;5.20;99.90;;;;;;5057518;28;20099;-77
2024/03/24 06:08:23;;;;;;;12.32;3.60;;;5.20;99.90;;;;;;5060282;28;20040;-77
2024/03/24 06:10:50;;;;;;;14.68;3.05;;;5.30;99.90;;;;;;5039011;28;20423;-77
2024/03/24 06:13:16;;;;;;;12.10;2.97;;;5.20;99.90;;;;;;5083780;28;20508;-77
2024/03/24 06:15:42;;;;;;;10.32;3.03;;;5.30;99.90;;;;;;5062952;28;20103;-78
2024/03/24 06:18:09;;;;;;;12.23;3.30;;;5.50;99.90;;;;;;5061967;28;20438;-78
2024/03/24 06:20:35;;;;;;;13.30;3.20;;;5.40;99.90;;;;;;5073822;28;20052;-78
2024/03/24 06:23:06;;;;;;;15.05;2.90;;;5.40;99.90;;;;;;5058044;28;20032;-77
2024/03/24 06:25:32;;;;;;;13.38;3.17;;;5.50;99.90;;;;;;5036054;28;20053;-77
2024/03/24 06:27:59;;;;;;;15.30;3.45;;;5.40;99.90;;;;;;5052398;28;20073;-77
2024/03/24 06:30:24;;;;;;;14.43;3.67;;;5.40;99.90;;;;;;5052050;28;20048;-77
2024/03/24 06:32:51;;;;;;;14.48;3.97;;;5.50;99.90;;;;;;5071239;28;20048;-77
2024/03/24 06:35:16;;;;;;;12.77;4.00;;;5.50;99.90;;;;;;5051776;28;20083;-77
2024/03/24 06:37:43;;;;;;;15.10;3.80;;;5.60;99.90;;;;;;5046896;28;20081;-77
2024/03/24 06:40:10;;;;;;;14.45;3.53;;;5.60;99.90;;;;;;5046249;28;20036;-77
2024/03/24 06:42:59;;;;;;;16.80;3.88;;;5.60;99.90;;;;;;5059253;28;20059;-77
2024/03/24 06:45:34;;;;;;;15.40;4.15;;;5.60;99.90;;;;;;5042694;28;20056;-76
2024/03/24 06:48:00;;;;;;;10.05;3.38;;;5.70;99.90;;;;;;5064189;28;20099;-76
2024/03/24 06:50:29;;;;;;;17.05;4.10;;;5.60;99.90;;;;;;5061310;28;20044;-76
2024/03/24 06:52:56;;;;;;;8.15;2.80;;;5.60;99.90;;;;;;5038643;28;20051;-77
2024/03/24 06:55:24;;;;;;;10.60;3.20;;;5.60;99.90;;;;;;5058502;28;20056;-77
2024/03/24 06:57:50;;;;;;;8.95;2.90;;;5.60;99.90;;;;;;5049837;28;20052;-77
2024/03/24 07:00:17;;;;;;;11.90;2.88;;;5.60;99.90;;;;;;5035968;28;20052;-77
2024/03/24 07:02:46;;;;;;;9.88;2.65;;;5.60;99.90;;;;;;5052744;28;20119;-77
2024/03/24 07:05:12;;;;;;;12.43;3.45;;;5.50;99.90;;;;;;5060658;28;20041;-77
2024/03/24 07:07:38;;;;;;;11.02;2.80;;;5.50;99.90;;;;;;5065356;28;20067;-77
2024/03/24 07:10:05;;;;;;;9.90;2.88;;;5.50;99.90;;;;;;5033574;28;20793;-77
2024/03/24 07:12:31;;;;;;;9.57;2.70;;;5.40;99.90;;;;;;5075269;28;20055;-76
2024/03/24 07:14:57;;;;;;;10.95;2.53;;;5.40;99.90;;;;;;5051869;28;20041;-76
2024/03/24 07:17:22;;;;;;;11.75;3.08;;;5.40;99.90;;;;;;5058459;28;20044;-77
2024/03/24 07:19:48;;;;;;;16.92;3.85;;;5.30;99.90;;;;;;5058033;28;20045;-77
2024/03/24 07:22:14;;;;;;;14.88;3.42;;;5.30;99.90;;;;;;5048879;28;20049;-77
2024/03/24 07:24:40;;;;;;;15.77;3.50;;;5.40;99.90;;;;;;5048737;28;20045;-76
2024/03/24 07:27:06;;;;;;;19.15;4.18;;;5.40;99.90;;;;;;5045403;28;20032;-77
2024/03/24 07:29:32;;;;;;;21.27;4.93;;;5.40;99.90;;;;;;5057345;28;20051;-77
2024/03/24 07:31:58;;;;;;;16.10;4.47;;;5.60;99.90;;;;;;5056913;28;20036;-77
2024/03/24 07:34:23;;;;;;;19.83;4.72;;;5.70;99.90;;;;;;5052713;28;20076;-77
2024/03/24 07:36:49;;;;;;;21.50;5.30;;;5.80;99.90;;;;;;5047813;28;20116;-77
2024/03/24 07:39:15;;;;;;;24.67;5.63;;;5.90;99.90;;;;;;5049279;28;20616;-78
2024/03/24 07:41:41;;;;;;;19.58;5.00;;;5.90;99.90;;;;;;5046537;28;20044;-78
2024/03/24 07:44:06;;;;;;;17.85;4.15;;;5.90;99.90;;;;;;5055044;28;20134;-79
2024/03/24 07:46:32;;;;;;;17.67;4.38;;;5.90;99.90;;;;;;5063970;28;20523;-78
2024/03/24 07:48:58;;;;;;;9.52;2.72;;;5.90;99.90;;;;;;5045892;28;20488;-77
2024/03/24 07:51:24;;;;;;;11.05;2.08;;;5.90;99.90;;;;;;5050583;28;20044;-78
2024/03/24 07:53:49;;;;;;;9.98;2.40;;;5.80;99.90;;;;;;5058832;28;20040;-78
2024/03/24 07:56:15;;;;;;;9.73;2.28;;;5.70;99.90;;;;;;5048689;28;20448;-77
2024/03/24 07:58:44;;;;;;;13.13;2.60;;;5.70;99.90;;;;;;5055979;28;20041;-78
2024/03/24 08:01:09;;;;;;;10.40;2.35;;;5.60;99.90;;;;;;5047477;28;20044;-78
2024/03/24 08:03:35;;;;;;;13.10;2.10;;;5.60;99.90;;;;;;5052323;28;20053;-78
2024/03/24 08:06:04;;;;;;;10.30;2.60;;;5.60;99.90;;;;;;5058585;28;20071;-78
2024/03/24 08:08:29;;;;;;;6.57;2.25;;;5.60;99.90;;;;;;5072407;28;20037;-78
2024/03/24 08:10:55;;;;;;;10.55;2.45;;;5.60;99.90;;;;;;5060456;28;20087;-78
2024/03/24 08:13:21;;;;;;;6.82;1.92;;;5.50;99.90;;;;;;5053263;28;20052;-78
2024/03/24 08:15:47;;;;;;;9.48;2.15;;;5.60;99.90;;;;;;5056999;28;20045;-78
2024/03/24 08:18:14;;;;;;;8.07;2.00;;;5.60;99.90;;;;;;5048776;28;20040;-78
2024/03/24 08:20:48;;;;;;;7.65;1.85;;;5.60;99.90;;;;;;5062997;28;20048;-78
2024/03/24 08:23:14;;;;;;;8.77;1.95;;;5.50;99.90;;;;;;5049126;28;20041;-77
2024/03/24 08:25:43;;;;;;;9.88;2.17;;;5.50;99.90;;;;;;5066203;28;20159;-77
2024/03/24 08:28:09;;;;;;;11.35;2.60;;;5.50;99.90;;;;;;5048257;28;20049;-78
2024/03/24 08:30:35;;;;;;;7.97;2.25;;;5.50;99.90;;;;;;5081833;28;20058;-78
2024/03/24 08:33:01;;;;;;;13.43;2.92;;;5.50;99.90;;;;;;5048097;28;20037;-79
2024/03/24 08:35:27;;;;;;;10.98;3.20;;;5.50;99.90;;;;;;5062503;28;20053;-78
2024/03/24 08:37:53;;;;;;;10.77;1.85;;;5.50;99.90;;;;;;5061553;28;20033;-76
2024/03/24 08:40:19;;;;;;;7.18;1.90;;;5.60;99.90;;;;;;5064531;28;20041;-77
2024/03/24 08:42:45;;;;;;;10.65;2.10;;;5.80;99.90;;;;;;5060749;28;20045;-78
2024/03/24 08:45:14;;;;;;;9.60;1.90;;;5.80;99.90;;;;;;5069166;28;20549;-76
2024/03/24 08:47:40;;;;;;;9.23;1.85;;;5.90;99.90;;;;;;5079923;28;20119;-78
2024/03/24 08:50:06;;;;;;;8.73;2.03;;;5.90;99.90;;;;;;5060330;28;20448;-78
2024/03/24 08:52:31;;;;;;;9.20;1.92;;;5.90;99.90;;;;;;5047928;28;20128;-78
2024/03/24 08:54:58;;;;;;;9.55;1.88;;;5.90;99.90;;;;;;5062846;28;20127;-80
2024/03/24 08:57:24;;;;;;;7.03;1.50;;;5.90;99.90;;;;;;5059029;28;20083;-78
2024/03/24 08:59:54;;;;;;;9.95;1.48;;;6.00;99.90;;;;;;5045654;28;20082;-78
2024/03/24 09:02:20;;;;;;;6.93;1.60;;;5.90;99.90;;;;;;5064370;28;20052;-78
2024/03/24 09:04:46;;;;;;;6.65;1.50;;;5.90;99.90;;;;;;5055880;28;20040;-76
2024/03/24 09:07:13;;;;;;;8.02;1.42;;;5.90;99.90;;;;;;5059204;28;20143;-78
2024/03/24 09:09:39;;;;;;;6.40;1.25;;;5.90;99.90;;;;;;5056837;28;20693;-78
2024/03/24 09:12:05;;;;;;;8.32;1.38;;;5.90;99.90;;;;;;5057025;28;20040;-78
2024/03/24 09:14:31;;;;;;;10.20;1.77;;;5.90;99.90;;;;;;5041462;28;20045;-78
2024/03/24 09:16:56;;;;;;;6.72;1.73;;;5.90;99.90;;;;;;5046150;28;20425;-78
2024/03/24 09:19:22;;;;;;;10.55;1.83;;;6.00;99.90;;;;;;5064082;28;20512;-78
2024/03/24 09:21:48;;;;;;;8.88;2.13;;;6.00;99.90;;;;;;5051075;28;20060;-78
2024/03/24 09:24:14;;;;;;;6.20;1.95;;;6.10;99.90;;;;;;5039926;28;20040;-78
2024/03/24 09:26:41;;;;;;;11.93;2.30;;;6.20;99.90;;;;;;5054816;28;20057;-78
2024/03/24 09:29:10;;;;;;;13.07;2.67;;;6.40;99.90;;;;;;5066904;28;20110;-78
2024/03/24 09:31:35;;;;;;;12.55;2.70;;;6.50;99.90;;;;;;5040702;28;20051;-78
2024/03/24 09:34:01;;;;;;;11.20;2.40;;;6.70;99.90;;;;;;5059620;28;20037;-77
2024/03/24 09:36:27;;;;;;;15.75;3.00;;;6.80;99.90;;;;;;5061096;28;20072;-79
2024/03/24 09:38:53;;;;;;;10.73;2.75;;;6.80;99.90;;;;;;5047910;28;20127;-79
2024/03/24 09:41:20;;;;;;;12.57;2.65;;;6.80;99.90;;;;;;5061045;28;20049;-78
2024/03/24 09:43:46;;;;;;;11.27;2.38;;;6.80;99.90;;;;;;5060368;28;20533;-79
2024/03/24 09:46:13;;;;;;;10.07;2.67;;;6.80;99.90;;;;;;5057684;28;20040;-78
2024/03/24 09:48:40;;;;;;;12.07;2.85;;;6.90;99.90;;;;;;5061021;28;20052;-79
2024/03/24 09:51:09;;;;;;;8.88;2.22;;;6.90;99.90;;;;;;5045636;28;20041;-78
2024/03/24 09:53:37;;;;;;;9.68;2.85;;;7.00;99.90;;;;;;5043992;28;20052;-78
2024/03/24 09:56:06;;;;;;;12.32;2.95;;;7.10;99.90;;;;;;5079061;28;20052;-79
2024/03/24 09:58:32;;;;;;;15.32;2.90;;;7.10;99.90;;;;;;5047480;28;20492;-78
2024/03/24 10:00:58;;;;;;;16.25;3.67;;;7.10;99.90;;;;;;5065734;28;20050;-78
2024/03/24 10:03:24;;;;;;;11.38;3.67;;;7.10;99.90;;;;;;5060679;28;20062;-78
2024/03/24 10:05:50;;;;;;;15.38;3.05;;;7.00;99.90;;;;;;5052337;28;20049;-79
2024/03/24 10:08:16;;;;;;;11.23;3.33;;;6.90;99.90;;;;;;5050527;28;20068;-78
2024/03/24 10:10:42;;;;;;;13.57;3.00;;;6.90;99.90;;;;;;5058585;28;20055;-78
2024/03/24 10:13:10;;;;;;;23.25;4.35;;;6.80;99.90;;;;;;5039932;28;20485;-78
2024/03/24 10:15:35;;;;;;;7.07;2.08;;;6.80;99.90;;;;;;5057708;28;20057;-78
2024/03/24 10:18:06;;;;;;;4.50;1.55;;;6.60;99.90;;;;;;5057329;28;20504;-78
2024/03/24 10:20:33;;;;;;;7.05;1.75;;;6.40;99.90;;;;;;5052550;28;20210;-78
2024/03/24 10:22:59;;;;;;;7.50;1.50;;;6.10;99.90;;;;;;5059643;28;20036;-78
2024/03/24 10:25:28;;;;;;;8.77;2.08;;;5.90;99.90;;;;;;5061022;28;20048;-78
2024/03/24 10:27:54;;;;;;;7.20;1.90;;;5.80;99.90;;;;;;5072282;28;20579;-79
2024/03/24 10:30:20;;;;;;;10.77;2.65;;;5.70;99.90;;;;;;5075628;28;20048;-79
2024/03/24 10:32:46;;;;;;;9.77;3.28;;;5.70;99.90;;;;;;5042613;28;20404;-78
2024/03/24 10:35:14;;;;;;;15.15;3.67;;;5.80;99.90;;;;;;5050286;28;20053;-79
2024/03/24 10:37:41;;;;;;;12.57;3.08;;;5.80;99.90;;;;;;5056017;28;20045;-79
2024/03/24 10:40:17;;;;;;;18.30;4.80;;;5.90;99.90;;;;;;5060106;28;20043;-78
2024/03/24 10:42:48;;;;;;;19.92;4.65;;;6.00;99.90;;;;;;5059098;28;20105;-79
2024/03/24 10:45:21;;;;;;;21.85;5.20;;;6.30;99.90;;;;;;5055431;28;20476;-78
2024/03/24 10:48:00;;;;;;;19.25;5.30;;;6.50;99.90;;;;;;5047972;28;20049;-79
2024/03/24 10:50:27;;;;;;;28.02;5.63;;;6.60;99.90;;;;;;5056952;28;20120;-78
2024/03/24 10:52:56;;;;;;;22.90;5.85;;;6.80;99.90;;;;;;5058018;28;20062;-78
2024/03/24 10:55:23;;;;;;;26.50;5.70;;;6.80;99.90;;;;;;5053558;28;20109;-78
2024/03/24 10:57:52;;;;;;;25.27;6.32;;;6.80;99.90;;;;;;5064089;28;20611;-78
2024/03/24 11:00:17;;;;;;;30.85;7.20;;;6.90;99.90;;;;;;5051952;28;20044;-78
2024/03/24 11:02:46;;;;;;;25.90;7.03;;;7.00;99.90;;;;;;5061524;28;20041;-78
2024/03/24 11:05:13;;;;;;;21.20;5.68;;;7.20;99.90;;;;;;5060713;28;20701;-78
2024/03/24 11:07:39;;;;;;;21.40;5.90;;;7.40;99.90;;;;;;5052377;28;20084;-78
2024/03/24 11:10:05;;;;;;;19.13;5.22;;;7.40;99.90;;;;;;5078637;28;20497;-80
2024/03/24 11:12:36;;;;;;;21.55;4.78;;;7.50;99.90;;;;;;5053099;28;20052;-77
2024/03/24 11:15:05;;;;;;;22.00;5.55;;;7.60;99.90;;;;;;5047779;28;20539;-78
2024/03/24 11:17:31;;;;;;;18.27;4.47;;;7.60;99.90;;;;;;5070676;28;20052;-78
2024/03/24 11:20:03;;;;;;;19.15;4.95;;;7.60;99.90;;;;;;5040314;28;20123;-79
2024/03/24 11:22:45;;;;;;;19.75;5.20;;;7.60;99.90;;;;;;5066205;28;20511;-78
2024/03/24 11:25:12;;;;;;;17.83;5.20;;;7.60;99.90;;;;;;5057270;28;20041;-78
2024/03/24 11:27:40;;;;;;;17.83;4.47;;;7.70;99.90;;;;;;5063884;28;20378;-78
2024/03/24 11:30:06;;;;;;;16.60;4.65;;;7.80;99.90;;;;;;5057189;28;20033;-78
2024/03/24 11:32:57;;;;;;;18.80;5.03;;;7.90;99.90;;;;;;5061109;28;20056;-79
2024/03/24 11:35:28;;;;;;;18.92;4.60;;;8.00;99.90;;;;;;5035411;28;20045;-78
2024/03/24 11:37:56;;;;;;;17.02;4.13;;;8.10;99.90;;;;;;5063691;28;20386;-78
2024/03/24 11:40:24;;;;;;;15.02;3.80;;;8.10;99.90;;;;;;5072189;28;20045;-79
2024/03/24 11:42:56;;;;;;;13.85;3.58;;;8.10;99.90;;;;;;5067000;28;20041;-81
2024/03/24 11:45:35;;;;;;;13.50;3.22;;;8.10;99.90;;;;;;5055364;28;20040;-79
2024/03/24 11:48:24;;;;;;;17.58;3.33;;;8.10;99.90;;;;;;5053757;28;20051;-78
2024/03/24 11:50:50;;;;;;;21.35;4.70;;;8.00;99.90;;;;;;5033884;28;20040;-79
2024/03/24 11:53:18;;;;;;;19.52;4.03;;;8.00;99.90;;;;;;5049609;28;20053;-78
2024/03/24 11:55:45;;;;;;;21.00;4.88;;;7.90;99.90;;;;;;5053736;28;20045;-79
2024/03/24 11:58:11;;;;;;;18.80;4.60;;;8.10;99.90;;;;;;5058688;28;20048;-78
2024/03/24 12:00:37;;;;;;;17.67;4.20;;;8.20;99.90;;;;;;5064127;28;20041;-80
2024/03/24 12:03:03;;;;;;;22.42;3.97;;;8.20;99.90;;;;;;5057159;28;20048;-80
2024/03/24 12:05:29;;;;;;;15.35;4.30;;;8.20;99.90;;;;;;5050338;28;20167;-80
2024/03/24 12:07:55;;;;;;;15.23;4.40;;;8.20;99.90;;;;;;5070571;28;20508;-78
2024/03/24 12:10:23;;;;;;;14.52;4.38;;;8.20;99.90;;;;;;5060949;28;20048;-78
2024/03/24 12:12:51;;;;;;;14.13;3.95;;;8.30;99.90;;;;;;5061686;28;20052;-80
2024/03/24 12:15:18;;;;;;;13.82;3.58;;;8.20;99.90;;;;;;5050165;28;20711;-77
2024/03/24 12:17:43;;;;;;;18.17;4.40;;;8.30;99.90;;;;;;5058569;28;20052;-79
2024/03/24 12:20:11;;;;;;;15.18;4.13;;;8.20;99.90;;;;;;5051994;28;20120;-78
2024/03/24 12:22:38;;;;;;;16.58;3.92;;;8.20;99.90;;;;;;5061658;28;20063;-78
2024/03/24 12:25:05;;;;;;;19.83;4.85;;;8.20;99.90;;;;;;5052872;28;20036;-79
2024/03/24 12:27:31;;;;;;;18.23;4.18;;;8.20;99.90;;;;;;5050988;28;20063;-79
2024/03/24 12:29:57;;;;;;;14.95;4.25;;;8.20;99.90;;;;;;5036516;28;20028;-78
2024/03/24 12:32:28;;;;;;;17.13;4.97;;;8.30;99.90;;;;;;5069094;28;20048;-79
2024/03/24 12:34:59;;;;;;;14.52;4.03;;;8.30;99.90;;;;;;5055542;28;20756;-78
2024/03/24 12:37:24;;;;;;;17.65;4.65;;;8.30;99.90;;;;;;5041102;28;20049;-78
2024/03/24 12:39:51;;;;;;;12.85;2.95;;;8.30;99.90;;;;;;5046899;28;20400;-79
2024/03/24 12:42:17;;;;;;;7.60;2.25;;;8.10;99.90;;;;;;5048720;28;20056;-81
2024/03/24 12:44:43;;;;;;;9.00;2.65;;;7.80;99.90;;;;;;5063540;28;20045;-79
2024/03/24 12:47:11;;;;;;;8.27;2.35;;;7.60;99.90;;;;;;5074723;28;20045;-78
2024/03/24 12:49:37;;;;;;;12.55;2.92;;;7.40;99.90;;;;;;5050637;28;20036;-79